createdAt,value
2022-08-09T00:01:39.915Z,6.90
2022-08-09T00:04:34.111Z,5.55
2022-08-09T00:07:07.800Z,5.70
2022-08-09T00:09:38.850Z,5.90
2022-08-09T00:12:06.490Z,5.63
2022-08-09T00:14:37.994Z,4.95
2022-08-09T00:17:06.519Z,6.18
2022-08-09T00:19:34.090Z,6.13
2022-08-09T00:22:03.571Z,6.00
2022-08-09T00:24:32.193Z,6.40
2022-08-09T00:27:00.604Z,6.75
2022-08-09T00:29:39.475Z,7.55
2022-08-09T00:32:25.767Z,10.80
2022-08-09T00:34:55.452Z,12.27
2022-08-09T00:37:22.474Z,10.82
2022-08-09T00:40:12.668Z,9.38
2022-08-09T00:44:10.531Z,8.55
2022-08-09T00:45:25.314Z,9.13
2022-08-09T00:47:52.655Z,9.10
2022-08-09T00:50:23.711Z,7.47
2022-08-09T00:52:52.764Z,6.90
2022-08-09T00:56:03.831Z,8.00
2022-08-09T00:58:09.111Z,7.20
2022-08-09T01:00:40.758Z,7.45
2022-08-09T01:03:16.928Z,5.78
2022-08-09T01:05:57.114Z,7.95
2022-08-09T01:08:45.661Z,9.25
2022-08-09T01:11:23.980Z,7.57
2022-08-09T01:14:10.004Z,8.00
2022-08-09T01:16:47.276Z,10.45
2022-08-09T01:19:42.475Z,9.75
2022-08-09T01:22:21.636Z,6.65
2022-08-09T01:25:08.870Z,7.05
2022-08-09T01:27:41.897Z,6.35
2022-08-09T01:30:35.371Z,9.52
2022-08-09T01:32:59.506Z,7.13
2022-08-09T01:35:51.964Z,8.68
2022-08-09T01:38:24.527Z,8.35
2022-08-09T01:41:06.366Z,8.07
2022-08-09T01:43:51.187Z,7.40
2022-08-09T01:46:25.117Z,9.02
2022-08-09T01:48:59.883Z,8.80
2022-08-09T01:51:32.410Z,8.50
2022-08-09T01:54:04.015Z,7.70
2022-08-09T01:56:33.411Z,7.93
2022-08-09T01:59:06.531Z,7.03
2022-08-09T02:01:58.253Z,7.00
2022-08-09T02:04:24.918Z,7.43
2022-08-09T02:07:18.175Z,6.75
2022-08-09T02:10:16.245Z,7.20
2022-08-09T02:12:47.166Z,6.88
2022-08-09T02:15:18.584Z,7.20
2022-08-09T02:18:01.196Z,8.30
2022-08-09T02:20:45.270Z,7.55
2022-08-09T02:23:42.644Z,7.35
2022-08-09T02:26:25.180Z,7.47
2022-08-09T02:28:59.668Z,6.95
2022-08-09T02:31:35.503Z,8.13
2022-08-09T02:34:40.129Z,9.35
2022-08-09T02:37:12.019Z,6.72
2022-08-09T02:39:49.945Z,9.02
2022-08-09T02:42:33.985Z,8.70
2022-08-09T02:45:06.581Z,8.02
2022-08-09T02:47:57.189Z,8.35
2022-08-09T02:50:29.315Z,8.30
2022-08-09T02:53:09.825Z,10.15
2022-08-09T02:55:58.245Z,8.35
2022-08-09T02:58:32.946Z,7.93
2022-08-09T03:01:08.073Z,7.78
2022-08-09T03:04:18.089Z,8.93
2022-08-09T03:06:29.126Z,7.22
2022-08-09T03:08:57.503Z,7.05
2022-08-09T03:12:04.758Z,9.10
2022-08-09T03:14:13.592Z,8.77
2022-08-09T03:16:47.739Z,11.20
2022-08-09T03:19:59.312Z,9.23
2022-08-09T03:22:12.195Z,8.90
2022-08-09T03:25:06.199Z,6.70
2022-08-09T03:30:23.700Z,7.93
2022-08-09T03:33:17.187Z,5.78
2022-08-09T03:36:12.736Z,6.35
2022-08-09T03:38:35.799Z,6.15
2022-08-09T03:41:04.517Z,6.25
2022-08-09T03:43:33.160Z,6.20
2022-08-09T03:46:20.633Z,6.53
2022-08-09T03:48:55.211Z,6.90
2022-08-09T03:51:56.771Z,7.50
2022-08-09T03:54:11.642Z,5.75
2022-08-09T03:56:41.931Z,6.10
2022-08-09T03:59:13.656Z,6.65
2022-08-09T04:01:45.685Z,7.35
2022-08-09T04:04:14.836Z,6.88
2022-08-09T04:06:48.827Z,7.03
2022-08-09T04:09:48.250Z,8.23
2022-08-09T04:12:40.393Z,11.38
2022-08-09T04:15:11.549Z,5.38
2022-08-09T04:17:45.143Z,7.25
2022-08-09T04:20:16.001Z,6.70
2022-08-09T04:22:44.735Z,5.80
2022-08-09T04:25:12.890Z,7.32
2022-08-09T04:27:49.101Z,6.90
2022-08-09T04:30:23.315Z,6.43
2022-08-09T04:32:54.220Z,5.80
2022-08-09T04:35:21.599Z,7.07
2022-08-09T04:37:50.079Z,7.28
2022-08-09T04:40:19.658Z,7.28
2022-08-09T04:43:03.592Z,7.15
2022-08-09T04:45:31.064Z,7.07
2022-08-09T04:48:06.674Z,5.57
2022-08-09T04:50:37.795Z,5.88
2022-08-09T04:53:13.196Z,5.60
2022-08-09T04:55:57.840Z,6.35
2022-08-09T04:58:29.054Z,7.70
2022-08-09T05:01:00.174Z,8.55
2022-08-09T05:03:41.157Z,7.10
2022-08-09T05:06:25.825Z,5.93
2022-08-09T05:09:00.574Z,7.97
2022-08-09T05:11:32.501Z,6.50
2022-08-09T05:14:06.187Z,5.65
2022-08-09T05:16:57.955Z,9.00
2022-08-09T05:19:25.648Z,7.88
2022-08-09T05:21:55.591Z,6.70
2022-08-09T05:24:24.890Z,7.50
2022-08-09T05:26:52.966Z,9.18
2022-08-09T05:29:22.107Z,6.88
2022-08-09T05:31:58.874Z,7.65
2022-08-09T05:34:30.936Z,8.52
2022-08-09T05:37:06.313Z,10.50
2022-08-09T05:39:42.863Z,8.60
2022-08-09T05:42:21.309Z,8.23
2022-08-09T05:44:54.132Z,9.05
2022-08-09T05:47:23.174Z,6.55
2022-08-09T05:50:29.862Z,10.30
2022-08-09T05:52:40.259Z,5.80
2022-08-09T05:55:10.962Z,9.43
2022-08-09T05:57:57.001Z,8.27
2022-08-09T06:00:32.849Z,9.57
2022-08-09T06:03:02.439Z,7.07
2022-08-09T06:05:54.732Z,8.40
2022-08-09T06:08:24.693Z,7.53
2022-08-09T06:10:54.018Z,6.75
2022-08-09T06:13:21.716Z,7.03
2022-08-09T06:15:51.576Z,6.78
2022-08-09T06:18:24.973Z,9.48
2022-08-09T06:20:57.446Z,7.00
2022-08-09T06:23:55.056Z,7.28
2022-08-09T06:26:21.010Z,8.07
2022-08-09T06:28:59.986Z,8.18
2022-08-09T06:31:39.377Z,6.70
2022-08-09T06:34:17.921Z,5.70
2022-08-09T06:36:45.351Z,6.30
2022-08-09T06:39:12.774Z,7.95
2022-08-09T06:42:08.886Z,5.88
2022-08-09T06:44:27.447Z,5.85
2022-08-09T06:46:55.410Z,7.50
2022-08-09T06:49:44.697Z,5.65
2022-08-09T06:52:12.133Z,8.00
2022-08-09T06:54:43.039Z,7.78
2022-08-09T06:57:12.090Z,9.15
2022-08-09T07:00:51.427Z,6.88
2022-08-09T07:02:32.086Z,8.30
2022-08-09T07:05:00.353Z,6.38
2022-08-09T07:07:59.060Z,8.63
2022-08-09T07:10:29.451Z,8.70
2022-08-09T07:12:59.523Z,6.35
2022-08-09T07:16:38.468Z,8.63
2022-08-09T07:18:15.022Z,8.55
2022-08-09T07:20:43.763Z,8.20
2022-08-09T07:23:19.384Z,8.93
2022-08-09T07:25:52.117Z,10.15
2022-08-09T07:28:28.014Z,10.75
2022-08-09T07:30:56.201Z,8.18
2022-08-09T07:33:23.453Z,7.88
2022-08-09T07:35:53.982Z,6.10
2022-08-09T07:38:23.420Z,6.28
2022-08-09T07:41:00.475Z,8.27
2022-08-09T07:43:49.639Z,7.63
2022-08-09T07:46:19.510Z,9.13
2022-08-09T07:48:52.844Z,10.50
2022-08-09T07:52:04.922Z,8.90
2022-08-09T07:54:14.172Z,8.15
2022-08-09T07:56:48.682Z,7.53
2022-08-09T07:59:34.735Z,6.82
2022-08-09T08:02:09.132Z,6.43
2022-08-09T08:04:37.216Z,7.35
2022-08-09T08:07:21.594Z,5.72
2022-08-09T08:12:36.989Z,5.68
2022-08-09T08:15:10.065Z,6.57
2022-08-09T08:17:53.806Z,4.72
2022-08-09T08:20:29.272Z,6.68
2022-08-09T08:23:01.660Z,5.85
2022-08-09T08:25:40.169Z,7.40
2022-08-09T08:28:14.399Z,5.30
2022-08-09T08:30:47.532Z,9.15
2022-08-09T08:33:22.799Z,6.70
2022-08-09T08:38:29.389Z,6.57
2022-08-09T08:40:57.953Z,8.43
2022-08-09T08:43:27.370Z,4.90
2022-08-09T08:46:09.934Z,5.35
2022-08-09T08:48:51.186Z,6.32
2022-08-09T08:51:19.176Z,5.25
2022-08-09T08:54:03.032Z,7.35
2022-08-09T08:56:39.679Z,6.63
2022-08-09T08:59:19.795Z,7.05
2022-08-09T09:01:52.808Z,7.57
2022-08-09T09:07:15.530Z,6.28
2022-08-09T09:10:02.000Z,7.28
2022-08-09T09:12:34.265Z,5.68
2022-08-09T09:15:05.467Z,5.72
2022-08-09T09:17:51.760Z,7.03
2022-08-09T09:20:20.691Z,6.38
2022-08-09T09:22:53.039Z,7.55
2022-08-09T09:26:02.013Z,6.82
2022-08-09T09:29:03.073Z,7.68
2022-08-09T09:32:04.703Z,5.57
2022-08-09T09:34:14.223Z,5.47
2022-08-09T09:36:52.766Z,7.57
2022-08-09T09:39:54.939Z,5.88
2022-08-09T09:42:29.677Z,5.25
2022-08-09T09:45:04.341Z,6.05
2022-08-09T09:47:32.501Z,5.40
2022-08-09T09:50:15.033Z,6.25
2022-08-09T09:52:56.234Z,5.47
2022-08-09T09:55:32.001Z,5.68
2022-08-09T10:00:55.823Z,8.32
2022-08-09T10:03:57.818Z,8.45
2022-08-09T10:06:42.853Z,8.80
2022-08-09T10:09:23.284Z,6.15
2022-08-09T10:12:14.614Z,7.80
2022-08-09T10:14:50.080Z,6.20
2022-08-09T10:17:39.546Z,4.88
2022-08-09T10:20:32.256Z,5.47
2022-08-09T10:23:16.988Z,4.95
2022-08-09T10:26:07.375Z,8.20
2022-08-09T10:28:34.413Z,6.97
2022-08-09T10:34:10.917Z,7.43
2022-08-09T10:36:38.208Z,6.57
2022-08-09T10:39:05.952Z,6.20
2022-08-09T10:41:43.444Z,5.45
2022-08-09T10:44:10.861Z,7.28
2022-08-09T10:47:01.143Z,7.97
2022-08-09T10:49:51.346Z,7.35
2022-08-09T10:53:05.236Z,7.32
2022-08-09T10:55:55.008Z,5.50
2022-08-09T10:58:37.117Z,9.98
2022-08-09T11:03:02.503Z,5.15
2022-08-09T11:04:28.088Z,6.53
2022-08-09T11:07:01.214Z,5.90
2022-08-09T11:09:37.655Z,4.30
2022-08-09T11:12:13.470Z,5.60
2022-08-09T11:14:51.206Z,5.53
2022-08-09T11:17:19.300Z,8.50
2022-08-09T11:20:08.115Z,6.57
2022-08-09T11:22:40.553Z,7.55
2022-08-09T11:25:47.709Z,6.75
2022-08-09T11:28:34.574Z,6.82
2022-08-09T11:31:52.741Z,6.60
2022-08-09T11:34:52.330Z,5.93
2022-08-09T11:37:40.697Z,6.57
2022-08-09T11:40:12.127Z,5.07
2022-08-09T11:42:48.492Z,4.18
2022-08-09T11:47:52.890Z,3.60
2022-08-09T11:50:53.273Z,4.47
2022-08-09T11:53:55.095Z,7.07
2022-08-09T11:58:32.946Z,4.45
2022-08-09T12:01:15.427Z,6.95
2022-08-09T12:04:01.040Z,5.35
2022-08-09T12:06:32.876Z,3.42
2022-08-09T12:09:19.259Z,4.63
2022-08-09T12:12:03.565Z,8.13
2022-08-09T12:14:40.996Z,5.68
2022-08-09T12:17:33.876Z,4.47
2022-08-09T12:22:56.175Z,4.07
2022-08-09T12:25:37.685Z,6.22
2022-08-09T12:29:14.626Z,6.82
2022-08-09T12:31:10.715Z,5.70
2022-08-09T12:33:58.616Z,6.63
2022-08-09T12:36:32.372Z,5.35
2022-08-09T12:39:01.729Z,4.93
2022-08-09T12:41:38.114Z,5.30
2022-08-09T12:44:08.014Z,7.15
2022-08-09T12:46:49.199Z,6.50
2022-08-09T12:49:18.319Z,6.55
2022-08-09T12:52:02.465Z,7.43
2022-08-09T12:56:11.029Z,5.43
2022-08-09T12:57:49.345Z,3.72
2022-08-09T13:00:25.603Z,4.65
2022-08-09T13:03:02.605Z,6.38
2022-08-09T13:05:52.420Z,3.15
2022-08-09T13:08:40.582Z,6.75
2022-08-09T13:11:13.273Z,5.95
2022-08-09T13:14:40.806Z,5.55
2022-08-09T13:16:46.250Z,4.15
2022-08-09T13:19:25.113Z,4.00
2022-08-09T13:22:37.765Z,6.22
2022-08-09T13:25:07.491Z,5.15
2022-08-09T13:27:39.566Z,4.18
2022-08-09T13:30:50.763Z,3.10
2022-08-09T13:33:11.653Z,3.45
2022-08-09T13:36:24.592Z,4.28
2022-08-09T13:38:54.305Z,5.90
2022-08-09T13:41:46.732Z,4.72
2022-08-09T13:44:00.497Z,4.10
2022-08-09T13:47:17.834Z,3.15
2022-08-09T13:49:19.416Z,3.80
2022-08-09T13:51:59.685Z,6.82
2022-08-09T13:54:30.177Z,4.35
2022-08-09T13:56:58.062Z,3.55
2022-08-09T13:59:25.988Z,4.10
2022-08-09T14:02:08.761Z,5.50
2022-08-09T14:04:37.122Z,3.92
2022-08-09T14:07:04.497Z,4.82
2022-08-09T14:09:34.717Z,3.60
2022-08-09T14:12:06.132Z,3.10
2022-08-09T14:14:43.996Z,4.90
2022-08-09T14:17:13.111Z,4.60
2022-08-09T14:19:44.037Z,4.85
2022-08-09T14:22:11.887Z,3.65
2022-08-09T14:24:46.956Z,4.85
2022-08-09T14:27:21.337Z,4.78
2022-08-09T14:30:34.620Z,4.30
2022-08-09T14:32:35.308Z,3.95
2022-08-09T14:35:07.012Z,5.10
2022-08-09T14:38:01.435Z,3.80
2022-08-09T14:40:38.877Z,3.95
2022-08-09T14:43:08.220Z,6.57
2022-08-09T14:46:55.820Z,5.63
2022-08-09T14:48:22.350Z,5.78
2022-08-09T14:50:53.850Z,7.07
2022-08-09T14:53:22.025Z,6.50
2022-08-09T14:55:50.640Z,8.13
2022-08-09T14:58:18.609Z,7.72
2022-08-09T15:00:48.550Z,9.32
2022-08-09T15:03:20.665Z,7.57
2022-08-09T15:05:52.552Z,5.88
2022-08-09T15:08:25.387Z,5.95
2022-08-09T15:11:01.347Z,4.82
2022-08-09T15:13:48.622Z,4.50
2022-08-09T15:16:19.817Z,5.40
2022-08-09T15:18:49.014Z,5.40
2022-08-09T15:21:55.525Z,3.92
2022-08-09T15:24:12.146Z,3.63
2022-08-09T15:26:45.892Z,4.07
2022-08-09T15:30:48.558Z,4.38
2022-08-09T15:32:02.050Z,6.00
2022-08-09T15:34:34.397Z,7.43
2022-08-09T15:37:23.820Z,5.13
2022-08-09T15:39:54.842Z,5.93
2022-08-09T15:42:22.518Z,5.78
2022-08-09T15:44:51.066Z,6.63
2022-08-09T15:47:22.305Z,6.25
2022-08-09T15:50:03.523Z,6.80
2022-08-09T15:52:37.120Z,7.72
2022-08-09T15:55:06.828Z,7.32
2022-08-09T15:57:44.348Z,8.38
2022-08-09T16:00:26.132Z,8.85
2022-08-09T16:02:56.460Z,8.55
2022-08-09T16:05:47.226Z,7.30
2022-08-09T16:08:30.543Z,7.82
2022-08-09T16:11:01.405Z,8.40
2022-08-09T16:14:02.754Z,7.35
2022-08-09T16:16:18.807Z,8.02
2022-08-09T16:18:47.696Z,5.78
2022-08-09T16:21:16.909Z,6.35
2022-08-09T16:23:50.803Z,5.28
2022-08-09T16:26:34.707Z,8.32
2022-08-09T16:29:12.645Z,8.10
2022-08-09T16:32:19.479Z,6.20
2022-08-09T16:34:55.063Z,6.35
2022-08-09T16:37:55.510Z,9.20
2022-08-09T16:42:38.696Z,8.95
2022-08-09T16:45:08.038Z,9.43
2022-08-09T16:48:41.365Z,8.48
2022-08-09T16:50:32.429Z,5.85
2022-08-09T16:53:01.719Z,6.47
2022-08-09T16:55:31.450Z,6.68
2022-08-09T16:58:17.384Z,6.75
2022-08-09T17:00:46.698Z,7.35
2022-08-09T17:03:21.631Z,7.15
2022-08-09T17:06:06.854Z,6.68
2022-08-09T17:08:59.004Z,8.32
2022-08-09T17:11:40.076Z,7.50
2022-08-09T17:14:26.283Z,6.53
2022-08-09T17:17:01.985Z,7.03
2022-08-09T17:19:46.717Z,7.88
2022-08-09T17:22:35.861Z,5.75
2022-08-09T17:25:10.317Z,8.07
2022-08-09T17:27:49.157Z,8.10
2022-08-09T17:30:22.546Z,7.43
2022-08-09T17:32:53.337Z,8.15
2022-08-09T17:35:20.492Z,6.15
2022-08-09T17:38:12.111Z,9.80
2022-08-09T17:40:35.501Z,6.28
2022-08-09T17:43:32.538Z,8.90
2022-08-09T17:46:04.059Z,8.32
2022-08-09T17:48:40.354Z,6.82
2022-08-09T17:51:18.470Z,6.93
2022-08-09T17:53:53.645Z,6.88
2022-08-09T17:56:27.268Z,10.48
2022-08-09T17:59:01.185Z,7.55
2022-08-09T18:02:03.888Z,8.57
2022-08-09T18:04:19.764Z,8.15
2022-08-09T18:06:55.285Z,8.80
2022-08-09T18:09:40.446Z,8.88
2022-08-09T18:12:19.594Z,9.13
2022-08-09T18:14:53.786Z,9.23
2022-08-09T18:17:27.215Z,9.93
2022-08-09T18:20:55.556Z,7.50
2022-08-09T18:23:05.262Z,8.70
2022-08-09T18:25:50.869Z,10.40
2022-08-09T18:30:42.198Z,10.95
2022-08-09T18:31:10.237Z,11.15
2022-08-09T18:33:37.342Z,10.40
2022-08-09T18:36:08.752Z,11.05
2022-08-09T18:38:41.660Z,8.05
2022-08-09T18:41:08.903Z,10.88
2022-08-09T18:43:36.623Z,12.05
2022-08-09T18:46:50.002Z,8.70
2022-08-09T18:49:06.952Z,12.30
2022-08-09T18:51:38.642Z,9.88
2022-08-09T18:54:29.935Z,13.77
2022-08-09T18:57:06.310Z,10.02
2022-08-09T18:59:49.220Z,12.02
2022-08-09T19:02:20.377Z,9.25
2022-08-09T19:05:04.489Z,11.27
2022-08-09T19:07:34.867Z,10.50
2022-08-09T19:10:17.354Z,10.15
2022-08-09T19:12:56.643Z,12.13
2022-08-09T19:15:33.720Z,10.18
2022-08-09T19:18:02.136Z,10.77
2022-08-09T19:20:39.014Z,13.43
2022-08-09T19:23:16.774Z,13.93
2022-08-09T19:26:02.202Z,14.60
2022-08-09T19:28:32.013Z,18.35
2022-08-09T19:30:59.439Z,18.58
2022-08-09T19:33:27.035Z,16.13
2022-08-09T19:35:57.179Z,15.13
2022-08-09T19:38:25.037Z,15.20
2022-08-09T19:40:52.873Z,19.48
2022-08-09T19:43:58.062Z,14.88
2022-08-09T19:46:13.473Z,13.68
2022-08-09T19:49:02.603Z,16.27
2022-08-09T19:53:59.548Z,16.52
2022-08-09T19:56:28.550Z,16.35
2022-08-09T19:59:39.894Z,15.45
2022-08-09T20:02:03.363Z,16.50
2022-08-09T20:04:37.584Z,15.55
2022-08-09T20:07:20.905Z,14.40
2022-08-09T20:09:48.984Z,12.73
2022-08-09T20:12:27.078Z,13.30
2022-08-09T20:16:31.652Z,14.35
2022-08-09T20:17:54.487Z,18.58
2022-08-09T20:20:22.270Z,21.67
2022-08-09T20:22:56.052Z,18.85
2022-08-09T20:25:24.160Z,26.23
2022-08-09T20:27:53.607Z,23.80
2022-08-09T20:30:24.001Z,20.95
2022-08-09T20:32:52.905Z,20.40
2022-08-09T20:35:21.572Z,23.20
2022-08-09T20:38:23.368Z,23.65
2022-08-09T20:40:36.007Z,24.45
2022-08-09T20:43:17.950Z,27.73
2022-08-09T20:46:01.452Z,25.73
2022-08-09T20:48:39.286Z,29.98
2022-08-09T20:51:07.368Z,31.58
2022-08-09T20:53:43.917Z,32.33
2022-08-09T20:56:21.020Z,34.85
2022-08-09T20:58:50.727Z,32.95
2022-08-09T21:01:35.398Z,38.15
2022-08-09T21:05:54.280Z,36.78
2022-08-09T21:06:56.124Z,33.92
2022-08-09T21:09:25.011Z,31.25
2022-08-09T21:14:42.630Z,25.77
2022-08-09T21:18:23.905Z,26.80
2022-08-09T21:20:18.717Z,26.30
2022-08-09T21:22:53.965Z,25.73
2022-08-09T21:25:44.033Z,24.83
2022-08-09T21:28:33.452Z,23.52
2022-08-09T21:31:16.326Z,21.10
2022-08-09T21:33:51.341Z,23.27
2022-08-09T21:36:24.937Z,20.88
2022-08-09T21:38:57.378Z,23.70
2022-08-09T21:42:00.332Z,21.80
2022-08-09T21:44:32.751Z,19.45
2022-08-09T21:47:08.723Z,19.88
2022-08-09T21:49:42.711Z,15.45
2022-08-09T21:52:17.767Z,16.60
2022-08-09T21:54:49.517Z,14.07
2022-08-09T21:57:37.828Z,14.15
2022-08-09T22:00:11.302Z,13.27
2022-08-09T22:02:42.832Z,12.82
2022-08-09T22:05:22.742Z,13.63
2022-08-09T22:07:53.345Z,16.15
2022-08-09T22:10:23.154Z,17.60
2022-08-09T22:12:52.154Z,17.38
2022-08-09T22:15:20.631Z,12.15
2022-08-09T22:17:50.783Z,17.00
2022-08-09T22:20:21.841Z,14.35
2022-08-09T22:22:54.816Z,16.80
2022-08-09T22:26:05.422Z,16.27
2022-08-09T22:28:09.009Z,16.83
2022-08-09T22:30:36.541Z,20.52
2022-08-09T22:33:09.258Z,19.08
2022-08-09T22:36:01.109Z,19.85
2022-08-09T22:38:24.802Z,18.70
2022-08-09T22:40:57.499Z,22.17
2022-08-09T22:44:01.622Z,22.70
2022-08-09T22:48:12.378Z,17.52
2022-08-09T22:51:43.306Z,21.33
2022-08-09T22:54:21.417Z,25.75
2022-08-09T22:56:54.619Z,22.60
2022-08-09T22:59:58.383Z,21.50
2022-08-09T23:02:15.828Z,18.63
2022-08-09T23:04:54.252Z,15.40
2022-08-09T23:08:29.103Z,16.48
2022-08-09T23:10:29.327Z,24.23
2022-08-09T23:12:56.624Z,21.70
2022-08-09T23:15:23.848Z,18.55
2022-08-09T23:17:50.844Z,13.93
2022-08-09T23:20:17.858Z,12.63
2022-08-09T23:22:44.854Z,11.15
2022-08-09T23:25:11.941Z,10.18
2022-08-09T23:27:57.439Z,10.45
2022-08-09T23:30:25.930Z,9.73
2022-08-09T23:32:52.891Z,8.43
2022-08-09T23:35:19.917Z,7.53
2022-08-09T23:37:47.045Z,8.05
2022-08-09T23:40:14.708Z,10.50
2022-08-09T23:42:41.655Z,9.80
2022-08-09T23:45:11.092Z,7.43
2022-08-09T23:47:58.067Z,7.68
2022-08-09T23:50:25.423Z,9.00
2022-08-09T23:52:52.564Z,8.52
2022-08-09T23:55:19.856Z,7.38
2022-08-09T23:58:08.230Z,8.45
